sensor_id;sensor_type;location;lat;lon;timestamp;temperature;humidity
42245;DHT22;27912;51.828;5.688;2023-07-02T00:00:09;17.20;99.90
42245;DHT22;27912;51.828;5.688;2023-07-02T00:02:38;17.20;99.90
42245;DHT22;27912;51.828;5.688;2023-07-02T00:05:04;17.10;99.90
42245;DHT22;27912;51.828;5.688;2023-07-02T00:07:30;17.10;99.90
42245;DHT22;27912;51.828;5.688;2023-07-02T00:09:56;17.10;99.90
42245;DHT22;27912;51.828;5.688;2023-07-02T00:12:21;17.10;99.90
42245;DHT22;27912;51.828;5.688;2023-07-02T00:14:47;17.10;99.90
42245;DHT22;27912;51.828;5.688;2023-07-02T00:17:13;17.00;99.90
42245;DHT22;27912;51.828;5.688;2023-07-02T00:19:39;17.00;99.90
42245;DHT22;27912;51.828;5.688;2023-07-02T00:22:07;17.00;99.90
42245;DHT22;27912;51.828;5.688;2023-07-02T00:24:33;17.00;99.90
42245;DHT22;27912;51.828;5.688;2023-07-02T00:27:01;17.00;99.90
42245;DHT22;27912;51.828;5.688;2023-07-02T00:29:27;17.00;99.90
42245;DHT22;27912;51.828;5.688;2023-07-02T00:31:53;17.00;99.90
42245;DHT22;27912;51.828;5.688;2023-07-02T00:34:19;17.00;99.90
42245;DHT22;27912;51.828;5.688;2023-07-02T00:36:45;17.10;99.90
42245;DHT22;27912;51.828;5.688;2023-07-02T00:39:11;17.10;99.90
42245;DHT22;27912;51.828;5.688;2023-07-02T00:41:39;17.10;99.90
42245;DHT22;27912;51.828;5.688;2023-07-02T00:44:07;17.10;99.90
42245;DHT22;27912;51.828;5.688;2023-07-02T00:46:38;17.20;99.90
42245;DHT22;27912;51.828;5.688;2023-07-02T00:49:06;17.20;99.90
42245;DHT22;27912;51.828;5.688;2023-07-02T00:51:34;17.20;99.90
42245;DHT22;27912;51.828;5.688;2023-07-02T00:54:00;17.30;99.90
42245;DHT22;27912;51.828;5.688;2023-07-02T00:56:26;17.30;99.90
42245;DHT22;27912;51.828;5.688;2023-07-02T00:58:54;17.20;99.90
42245;DHT22;27912;51.828;5.688;2023-07-02T01:01:25;17.00;99.90
42245;DHT22;27912;51.828;5.688;2023-07-02T01:03:57;16.80;99.90
42245;DHT22;27912;51.828;5.688;2023-07-02T01:06:30;16.60;99.90
42245;DHT22;27912;51.828;5.688;2023-07-02T01:09:00;16.30;99.90
42245;DHT22;27912;51.828;5.688;2023-07-02T01:11:48;16.20;99.90
42245;DHT22;27912;51.828;5.688;2023-07-02T01:14:25;16.00;99.90
42245;DHT22;27912;51.828;5.688;2023-07-02T01:16:53;15.80;99.90
42245;DHT22;27912;51.828;5.688;2023-07-02T01:22:07;15.50;99.90
42245;DHT22;27912;51.828;5.688;2023-07-02T01:24:33;15.50;99.90
42245;DHT22;27912;51.828;5.688;2023-07-02T01:26:58;15.40;99.90
42245;DHT22;27912;51.828;5.688;2023-07-02T01:29:29;15.30;99.90
42245;DHT22;27912;51.828;5.688;2023-07-02T01:31:55;15.30;99.90
42245;DHT22;27912;51.828;5.688;2023-07-02T01:34:21;15.30;99.90
42245;DHT22;27912;51.828;5.688;2023-07-02T01:36:46;15.20;99.90
42245;DHT22;27912;51.828;5.688;2023-07-02T01:39:12;15.20;99.90
42245;DHT22;27912;51.828;5.688;2023-07-02T01:41:43;15.10;99.90
42245;DHT22;27912;51.828;5.688;2023-07-02T01:44:09;15.10;99.90
42245;DHT22;27912;51.828;5.688;2023-07-02T01:46:35;15.10;99.90
42245;DHT22;27912;51.828;5.688;2023-07-02T01:49:01;15.00;99.90
42245;DHT22;27912;51.828;5.688;2023-07-02T01:51:26;15.00;99.90
42245;DHT22;27912;51.828;5.688;2023-07-02T01:53:52;15.00;99.90
42245;DHT22;27912;51.828;5.688;2023-07-02T01:56:17;15.00;99.90
42245;DHT22;27912;51.828;5.688;2023-07-02T01:58:43;14.90;99.90
42245;DHT22;27912;51.828;5.688;2023-07-02T02:01:08;14.90;99.90
42245;DHT22;27912;51.828;5.688;2023-07-02T02:03:34;14.80;99.90
42245;DHT22;27912;51.828;5.688;2023-07-02T02:05:59;14.80;99.90
42245;DHT22;27912;51.828;5.688;2023-07-02T02:08:25;14.70;99.90
42245;DHT22;27912;51.828;5.688;2023-07-02T02:10:50;14.60;99.90
42245;DHT22;27912;51.828;5.688;2023-07-02T02:13:16;14.60;99.90
42245;DHT22;27912;51.828;5.688;2023-07-02T02:15:41;14.60;99.90
42245;DHT22;27912;51.828;5.688;2023-07-02T02:18:07;14.60;99.90
42245;DHT22;27912;51.828;5.688;2023-07-02T02:20:32;14.50;99.90
42245;DHT22;27912;51.828;5.688;2023-07-02T02:22:58;14.50;99.90
42245;DHT22;27912;51.828;5.688;2023-07-02T02:25:24;14.50;99.90
42245;DHT22;27912;51.828;5.688;2023-07-02T02:27:49;14.40;99.90
42245;DHT22;27912;51.828;5.688;2023-07-02T02:30:15;14.30;99.90
42245;DHT22;27912;51.828;5.688;2023-07-02T02:32:40;14.30;99.90
42245;DHT22;27912;51.828;5.688;2023-07-02T02:35:06;14.30;99.90
42245;DHT22;27912;51.828;5.688;2023-07-02T02:37:34;14.30;99.90
42245;DHT22;27912;51.828;5.688;2023-07-02T02:40:00;14.30;99.90
42245;DHT22;27912;51.828;5.688;2023-07-02T02:42:25;14.30;99.90
42245;DHT22;27912;51.828;5.688;2023-07-02T02:44:51;14.30;99.90
42245;DHT22;27912;51.828;5.688;2023-07-02T02:47:17;14.40;99.90
42245;DHT22;27912;51.828;5.688;2023-07-02T02:49:42;14.40;99.90
42245;DHT22;27912;51.828;5.688;2023-07-02T02:52:08;14.40;99.90
42245;DHT22;27912;51.828;5.688;2023-07-02T02:54:33;14.40;99.90
42245;DHT22;27912;51.828;5.688;2023-07-02T02:56:59;14.40;99.90
42245;DHT22;27912;51.828;5.688;2023-07-02T02:59:24;14.40;99.90
42245;DHT22;27912;51.828;5.688;2023-07-02T03:01:50;14.40;99.90
42245;DHT22;27912;51.828;5.688;2023-07-02T03:04:16;14.40;99.90
42245;DHT22;27912;51.828;5.688;2023-07-02T03:06:42;14.30;99.90
42245;DHT22;27912;51.828;5.688;2023-07-02T03:09:07;14.30;99.90
42245;DHT22;27912;51.828;5.688;2023-07-02T03:11:33;14.30;99.90
42245;DHT22;27912;51.828;5.688;2023-07-02T03:13:58;14.30;99.90
42245;DHT22;27912;51.828;5.688;2023-07-02T03:16:24;14.30;99.90
42245;DHT22;27912;51.828;5.688;2023-07-02T03:18:49;14.30;99.90
42245;DHT22;27912;51.828;5.688;2023-07-02T03:21:16;14.40;99.90
42245;DHT22;27912;51.828;5.688;2023-07-02T03:23:41;14.40;99.90
42245;DHT22;27912;51.828;5.688;2023-07-02T03:26:07;14.50;99.90
42245;DHT22;27912;51.828;5.688;2023-07-02T03:28:32;14.50;99.90
42245;DHT22;27912;51.828;5.688;2023-07-02T03:31:00;14.60;99.90
42245;DHT22;27912;51.828;5.688;2023-07-02T03:33:25;14.60;99.90
42245;DHT22;27912;51.828;5.688;2023-07-02T03:35:51;14.70;99.90
42245;DHT22;27912;51.828;5.688;2023-07-02T03:38:16;14.70;99.90
42245;DHT22;27912;51.828;5.688;2023-07-02T03:40:42;14.70;99.90
42245;DHT22;27912;51.828;5.688;2023-07-02T03:43:07;14.70;99.90
42245;DHT22;27912;51.828;5.688;2023-07-02T03:45:33;14.70;99.90
42245;DHT22;27912;51.828;5.688;2023-07-02T03:48:00;14.70;99.90
42245;DHT22;27912;51.828;5.688;2023-07-02T03:50:26;14.70;99.90
42245;DHT22;27912;51.828;5.688;2023-07-02T03:52:51;14.70;99.90
42245;DHT22;27912;51.828;5.688;2023-07-02T03:55:19;14.70;99.90
42245;DHT22;27912;51.828;5.688;2023-07-02T03:57:45;14.70;99.90
42245;DHT22;27912;51.828;5.688;2023-07-02T04:00:10;14.70;99.90
42245;DHT22;27912;51.828;5.688;2023-07-02T04:02:36;14.70;99.90
42245;DHT22;27912;51.828;5.688;2023-07-02T04:05:02;14.60;99.90
42245;DHT22;27912;51.828;5.688;2023-07-02T04:07:28;14.70;99.90
42245;DHT22;27912;51.828;5.688;2023-07-02T04:09:54;14.60;99.90
42245;DHT22;27912;51.828;5.688;2023-07-02T04:12:20;14.60;99.90
42245;DHT22;27912;51.828;5.688;2023-07-02T04:14:45;14.60;99.90
42245;DHT22;27912;51.828;5.688;2023-07-02T04:17:11;14.60;99.90
42245;DHT22;27912;51.828;5.688;2023-07-02T04:19:36;14.60;99.90
42245;DHT22;27912;51.828;5.688;2023-07-02T04:22:02;14.60;99.90
42245;DHT22;27912;51.828;5.688;2023-07-02T04:24:28;14.60;99.90
42245;DHT22;27912;51.828;5.688;2023-07-02T04:26:53;14.60;99.90
42245;DHT22;27912;51.828;5.688;2023-07-02T04:29:19;14.60;99.90
42245;DHT22;27912;51.828;5.688;2023-07-02T04:31:45;14.70;99.90
42245;DHT22;27912;51.828;5.688;2023-07-02T04:34:10;14.70;99.90
42245;DHT22;27912;51.828;5.688;2023-07-02T04:36:36;14.70;99.90
42245;DHT22;27912;51.828;5.688;2023-07-02T04:39:01;14.70;99.90
42245;DHT22;27912;51.828;5.688;2023-07-02T04:41:27;14.80;99.90
42245;DHT22;27912;51.828;5.688;2023-07-02T04:43:52;14.80;99.90
42245;DHT22;27912;51.828;5.688;2023-07-02T04:46:18;14.80;99.90
42245;DHT22;27912;51.828;5.688;2023-07-02T04:48:44;14.80;99.90
42245;DHT22;27912;51.828;5.688;2023-07-02T04:51:09;14.80;99.90
42245;DHT22;27912;51.828;5.688;2023-07-02T04:53:35;14.80;99.90
42245;DHT22;27912;51.828;5.688;2023-07-02T04:56:03;14.80;99.90
42245;DHT22;27912;51.828;5.688;2023-07-02T04:58:28;14.90;99.90
42245;DHT22;27912;51.828;5.688;2023-07-02T05:00:54;15.10;99.90
42245;DHT22;27912;51.828;5.688;2023-07-02T05:03:19;15.50;99.90
42245;DHT22;27912;51.828;5.688;2023-07-02T05:05:45;15.90;99.90
42245;DHT22;27912;51.828;5.688;2023-07-02T05:08:10;16.20;99.90
42245;DHT22;27912;51.828;5.688;2023-07-02T05:10:36;16.60;99.90
42245;DHT22;27912;51.828;5.688;2023-07-02T05:13:01;16.90;99.90
42245;DHT22;27912;51.828;5.688;2023-07-02T05:15:27;17.00;99.90
42245;DHT22;27912;51.828;5.688;2023-07-02T05:17:52;17.00;99.90
42245;DHT22;27912;51.828;5.688;2023-07-02T05:20:18;17.00;99.90
42245;DHT22;27912;51.828;5.688;2023-07-02T05:22:44;17.00;99.90
42245;DHT22;27912;51.828;5.688;2023-07-02T05:25:09;17.00;99.90
42245;DHT22;27912;51.828;5.688;2023-07-02T05:27:34;16.90;99.90
42245;DHT22;27912;51.828;5.688;2023-07-02T05:30:00;16.90;99.90
42245;DHT22;27912;51.828;5.688;2023-07-02T05:32:26;16.80;99.90
42245;DHT22;27912;51.828;5.688;2023-07-02T05:34:51;16.90;99.90
42245;DHT22;27912;51.828;5.688;2023-07-02T05:37:17;16.90;99.90
42245;DHT22;27912;51.828;5.688;2023-07-02T05:39:43;16.80;99.90
42245;DHT22;27912;51.828;5.688;2023-07-02T05:42:08;16.70;99.90
42245;DHT22;27912;51.828;5.688;2023-07-02T05:44:34;16.70;99.90
42245;DHT22;27912;51.828;5.688;2023-07-02T05:46:59;16.70;99.90
42245;DHT22;27912;51.828;5.688;2023-07-02T05:49:25;16.70;99.90
42245;DHT22;27912;51.828;5.688;2023-07-02T05:51:51;16.80;99.90
42245;DHT22;27912;51.828;5.688;2023-07-02T05:54:17;16.80;99.90
42245;DHT22;27912;51.828;5.688;2023-07-02T05:56:43;16.90;99.90
42245;DHT22;27912;51.828;5.688;2023-07-02T05:59:08;16.90;99.90
42245;DHT22;27912;51.828;5.688;2023-07-02T06:01:34;16.90;99.90
42245;DHT22;27912;51.828;5.688;2023-07-02T06:03:59;17.00;99.90
42245;DHT22;27912;51.828;5.688;2023-07-02T06:06:25;17.00;99.90
42245;DHT22;27912;51.828;5.688;2023-07-02T06:08:50;17.10;99.90
42245;DHT22;27912;51.828;5.688;2023-07-02T06:11:16;17.10;99.90
42245;DHT22;27912;51.828;5.688;2023-07-02T06:13:42;17.10;99.90
42245;DHT22;27912;51.828;5.688;2023-07-02T06:16:08;17.20;99.90
42245;DHT22;27912;51.828;5.688;2023-07-02T06:18:33;17.20;99.90
42245;DHT22;27912;51.828;5.688;2023-07-02T06:20:59;17.30;99.90
42245;DHT22;27912;51.828;5.688;2023-07-02T06:23:25;17.30;99.90
42245;DHT22;27912;51.828;5.688;2023-07-02T06:25:50;17.40;99.90
42245;DHT22;27912;51.828;5.688;2023-07-02T06:28:18;17.40;99.90
42245;DHT22;27912;51.828;5.688;2023-07-02T06:30:44;17.60;99.90
42245;DHT22;27912;51.828;5.688;2023-07-02T06:33:10;17.60;99.90
42245;DHT22;27912;51.828;5.688;2023-07-02T06:35:35;17.60;99.90
42245;DHT22;27912;51.828;5.688;2023-07-02T06:38:01;17.70;99.90
42245;DHT22;27912;51.828;5.688;2023-07-02T06:40:26;17.70;99.90
42245;DHT22;27912;51.828;5.688;2023-07-02T06:42:52;17.70;99.90
42245;DHT22;27912;51.828;5.688;2023-07-02T06:45:17;17.80;99.90
42245;DHT22;27912;51.828;5.688;2023-07-02T06:47:43;17.90;99.90
42245;DHT22;27912;51.828;5.688;2023-07-02T06:50:08;17.90;99.90
42245;DHT22;27912;51.828;5.688;2023-07-02T06:52:34;18.00;99.90
42245;DHT22;27912;51.828;5.688;2023-07-02T06:54:59;18.00;99.90
42245;DHT22;27912;51.828;5.688;2023-07-02T06:57:25;18.10;99.90
42245;DHT22;27912;51.828;5.688;2023-07-02T06:59:50;18.10;99.90
42245;DHT22;27912;51.828;5.688;2023-07-02T07:02:16;18.10;99.90
42245;DHT22;27912;51.828;5.688;2023-07-02T07:04:42;18.20;99.90
42245;DHT22;27912;51.828;5.688;2023-07-02T07:07:10;18.10;99.90
42245;DHT22;27912;51.828;5.688;2023-07-02T07:09:40;18.20;99.90
42245;DHT22;27912;51.828;5.688;2023-07-02T07:12:06;18.20;99.90
42245;DHT22;27912;51.828;5.688;2023-07-02T07:14:34;18.30;99.90
42245;DHT22;27912;51.828;5.688;2023-07-02T07:17:00;18.40;99.90
42245;DHT22;27912;51.828;5.688;2023-07-02T07:19:27;18.40;99.90
42245;DHT22;27912;51.828;5.688;2023-07-02T07:21:57;18.40;99.90
42245;DHT22;27912;51.828;5.688;2023-07-02T07:24:23;18.40;99.90
42245;DHT22;27912;51.828;5.688;2023-07-02T07:26:48;18.50;99.90
42245;DHT22;27912;51.828;5.688;2023-07-02T07:29:14;18.50;99.90
42245;DHT22;27912;51.828;5.688;2023-07-02T07:31:40;18.50;99.90
42245;DHT22;27912;51.828;5.688;2023-07-02T07:34:05;18.50;99.90
42245;DHT22;27912;51.828;5.688;2023-07-02T07:36:31;18.60;99.90
42245;DHT22;27912;51.828;5.688;2023-07-02T07:38:56;18.70;99.90
42245;DHT22;27912;51.828;5.688;2023-07-02T07:41:32;18.70;99.90
42245;DHT22;27912;51.828;5.688;2023-07-02T07:43:59;18.60;99.90
42245;DHT22;27912;51.828;5.688;2023-07-02T07:46:26;18.50;99.90
42245;DHT22;27912;51.828;5.688;2023-07-02T07:48:53;18.30;99.90
42245;DHT22;27912;51.828;5.688;2023-07-02T07:51:18;18.10;99.90
42245;DHT22;27912;51.828;5.688;2023-07-02T07:53:44;18.00;99.90
42245;DHT22;27912;51.828;5.688;2023-07-02T07:56:09;17.90;99.90
42245;DHT22;27912;51.828;5.688;2023-07-02T07:58:35;17.80;99.90
42245;DHT22;27912;51.828;5.688;2023-07-02T08:01:00;17.80;99.90
42245;DHT22;27912;51.828;5.688;2023-07-02T08:03:26;18.00;99.90
42245;DHT22;27912;51.828;5.688;2023-07-02T08:05:51;18.10;99.90
42245;DHT22;27912;51.828;5.688;2023-07-02T08:08:17;18.10;99.90
42245;DHT22;27912;51.828;5.688;2023-07-02T08:10:43;18.20;99.90
42245;DHT22;27912;51.828;5.688;2023-07-02T08:13:08;18.10;99.90
42245;DHT22;27912;51.828;5.688;2023-07-02T08:15:34;18.20;99.90
42245;DHT22;27912;51.828;5.688;2023-07-02T08:18:00;18.30;99.90
42245;DHT22;27912;51.828;5.688;2023-07-02T08:20:25;18.40;99.90
42245;DHT22;27912;51.828;5.688;2023-07-02T08:22:51;18.60;99.90
42245;DHT22;27912;51.828;5.688;2023-07-02T08:25:17;18.70;99.90
42245;DHT22;27912;51.828;5.688;2023-07-02T08:27:43;18.80;99.90
42245;DHT22;27912;51.828;5.688;2023-07-02T08:30:09;18.80;99.90
42245;DHT22;27912;51.828;5.688;2023-07-02T08:32:35;18.80;99.90
42245;DHT22;27912;51.828;5.688;2023-07-02T08:35:00;18.80;99.90
42245;DHT22;27912;51.828;5.688;2023-07-02T08:37:26;18.70;99.90
42245;DHT22;27912;51.828;5.688;2023-07-02T08:39:51;18.60;99.30
42245;DHT22;27912;51.828;5.688;2023-07-02T08:42:17;18.50;99.00
42245;DHT22;27912;51.828;5.688;2023-07-02T08:44:46;18.50;99.10
42245;DHT22;27912;51.828;5.688;2023-07-02T08:47:12;18.50;99.30
42245;DHT22;27912;51.828;5.688;2023-07-02T08:49:38;18.50;99.20
42245;DHT22;27912;51.828;5.688;2023-07-02T08:52:04;18.50;99.20
42245;DHT22;27912;51.828;5.688;2023-07-02T08:54:30;18.50;99.30
42245;DHT22;27912;51.828;5.688;2023-07-02T08:56:55;18.50;99.30
42245;DHT22;27912;51.828;5.688;2023-07-02T08:59:21;18.50;99.10
42245;DHT22;27912;51.828;5.688;2023-07-02T09:01:51;18.50;99.10
42245;DHT22;27912;51.828;5.688;2023-07-02T09:04:20;18.60;99.30
42245;DHT22;27912;51.828;5.688;2023-07-02T09:06:47;18.60;99.30
42245;DHT22;27912;51.828;5.688;2023-07-02T09:09:13;18.70;98.90
42245;DHT22;27912;51.828;5.688;2023-07-02T09:11:51;18.80;98.70
42245;DHT22;27912;51.828;5.688;2023-07-02T09:14:30;19.00;98.70
42245;DHT22;27912;51.828;5.688;2023-07-02T09:19:28;19.00;98.20
42245;DHT22;27912;51.828;5.688;2023-07-02T09:21:57;19.20;98.20
42245;DHT22;27912;51.828;5.688;2023-07-02T09:24:25;19.30;97.90
42245;DHT22;27912;51.828;5.688;2023-07-02T09:26:52;19.40;98.30
42245;DHT22;27912;51.828;5.688;2023-07-02T09:29:32;19.70;98.40
42245;DHT22;27912;51.828;5.688;2023-07-02T09:31:59;20.00;97.80
42245;DHT22;27912;51.828;5.688;2023-07-02T09:34:31;20.10;96.40
42245;DHT22;27912;51.828;5.688;2023-07-02T09:36:58;19.90;95.80
42245;DHT22;27912;51.828;5.688;2023-07-02T09:39:34;19.60;95.40
42245;DHT22;27912;51.828;5.688;2023-07-02T09:42:01;19.50;95.70
42245;DHT22;27912;51.828;5.688;2023-07-02T09:44:31;19.40;95.60
42245;DHT22;27912;51.828;5.688;2023-07-02T09:47:07;19.30;95.50
42245;DHT22;27912;51.828;5.688;2023-07-02T09:49:41;19.30;95.50
42245;DHT22;27912;51.828;5.688;2023-07-02T09:52:08;19.20;95.20
42245;DHT22;27912;51.828;5.688;2023-07-02T09:54:35;19.20;95.50
42245;DHT22;27912;51.828;5.688;2023-07-02T09:57:01;19.30;95.30
42245;DHT22;27912;51.828;5.688;2023-07-02T09:59:27;19.50;95.20
42245;DHT22;27912;51.828;5.688;2023-07-02T10:01:53;19.70;94.60
42245;DHT22;27912;51.828;5.688;2023-07-02T10:04:20;19.90;94.30
42245;DHT22;27912;51.828;5.688;2023-07-02T10:06:53;20.00;94.00
42245;DHT22;27912;51.828;5.688;2023-07-02T10:09:21;20.00;93.20
42245;DHT22;27912;51.828;5.688;2023-07-02T10:11:47;20.10;93.10
42245;DHT22;27912;51.828;5.688;2023-07-02T10:14:13;20.30;92.10
42245;DHT22;27912;51.828;5.688;2023-07-02T10:16:54;20.30;91.40
42245;DHT22;27912;51.828;5.688;2023-07-02T10:19:20;20.30;90.00
42245;DHT22;27912;51.828;5.688;2023-07-02T10:21:47;20.20;90.00
42245;DHT22;27912;51.828;5.688;2023-07-02T10:24:25;20.30;90.40
42245;DHT22;27912;51.828;5.688;2023-07-02T10:27:01;20.40;89.50
42245;DHT22;27912;51.828;5.688;2023-07-02T10:29:28;20.40;90.20
42245;DHT22;27912;51.828;5.688;2023-07-02T10:31:55;20.40;89.70
42245;DHT22;27912;51.828;5.688;2023-07-02T10:34:48;20.40;89.00
42245;DHT22;27912;51.828;5.688;2023-07-02T10:37:13;20.50;87.40
42245;DHT22;27912;51.828;5.688;2023-07-02T10:39:39;20.60;87.30
42245;DHT22;27912;51.828;5.688;2023-07-02T10:42:06;20.70;86.80
42245;DHT22;27912;51.828;5.688;2023-07-02T10:44:33;20.70;85.90
42245;DHT22;27912;51.828;5.688;2023-07-02T10:46:59;20.70;85.50
42245;DHT22;27912;51.828;5.688;2023-07-02T10:49:32;20.70;84.20
42245;DHT22;27912;51.828;5.688;2023-07-02T10:52:01;20.70;84.20
42245;DHT22;27912;51.828;5.688;2023-07-02T10:54:45;20.80;84.20
42245;DHT22;27912;51.828;5.688;2023-07-02T10:57:14;20.90;83.60
42245;DHT22;27912;51.828;5.688;2023-07-02T10:59:41;21.00;83.00
42245;DHT22;27912;51.828;5.688;2023-07-02T11:02:08;21.10;82.10
42245;DHT22;27912;51.828;5.688;2023-07-02T11:04:33;21.20;80.70
42245;DHT22;27912;51.828;5.688;2023-07-02T11:07:01;21.30;81.40
42245;DHT22;27912;51.828;5.688;2023-07-02T11:09:26;21.50;80.10
42245;DHT22;27912;51.828;5.688;2023-07-02T11:11:56;21.40;77.90
42245;DHT22;27912;51.828;5.688;2023-07-02T11:16:54;21.30;77.30
42245;DHT22;27912;51.828;5.688;2023-07-02T11:19:20;21.40;78.20
42245;DHT22;27912;51.828;5.688;2023-07-02T11:21:54;21.40;77.20
42245;DHT22;27912;51.828;5.688;2023-07-02T11:24:32;21.20;76.70
42245;DHT22;27912;51.828;5.688;2023-07-02T11:26:59;21.00;77.00
42245;DHT22;27912;51.828;5.688;2023-07-02T11:29:25;21.00;76.00
42245;DHT22;27912;51.828;5.688;2023-07-02T11:31:50;21.00;76.40
42245;DHT22;27912;51.828;5.688;2023-07-02T11:34:18;20.80;75.60
42245;DHT22;27912;51.828;5.688;2023-07-02T11:36:47;20.80;75.40
42245;DHT22;27912;51.828;5.688;2023-07-02T11:39:15;20.80;76.90
42245;DHT22;27912;51.828;5.688;2023-07-02T11:41:45;20.90;76.60
42245;DHT22;27912;51.828;5.688;2023-07-02T11:44:11;21.00;75.70
42245;DHT22;27912;51.828;5.688;2023-07-02T11:46:36;21.10;75.20
42245;DHT22;27912;51.828;5.688;2023-07-02T11:49:03;21.20;75.10
42245;DHT22;27912;51.828;5.688;2023-07-02T11:51:36;21.40;74.40
42245;DHT22;27912;51.828;5.688;2023-07-02T11:54:03;21.50;72.90
42245;DHT22;27912;51.828;5.688;2023-07-02T11:56:30;21.30;73.50
42245;DHT22;27912;51.828;5.688;2023-07-02T11:58:56;21.20;72.90
42245;DHT22;27912;51.828;5.688;2023-07-02T12:01:21;21.10;71.50
42245;DHT22;27912;51.828;5.688;2023-07-02T12:03:47;21.00;71.30
42245;DHT22;27912;51.828;5.688;2023-07-02T12:06:12;21.00;71.10
42245;DHT22;27912;51.828;5.688;2023-07-02T12:08:38;21.00;71.90
42245;DHT22;27912;51.828;5.688;2023-07-02T12:11:03;21.20;72.80
42245;DHT22;27912;51.828;5.688;2023-07-02T12:13:29;21.40;71.90
42245;DHT22;27912;51.828;5.688;2023-07-02T12:15:54;21.60;72.20
42245;DHT22;27912;51.828;5.688;2023-07-02T12:18:20;21.50;71.30
42245;DHT22;27912;51.828;5.688;2023-07-02T12:20:45;21.40;71.00
42245;DHT22;27912;51.828;5.688;2023-07-02T12:23:11;21.50;72.10
42245;DHT22;27912;51.828;5.688;2023-07-02T12:25:37;21.50;71.30
42245;DHT22;27912;51.828;5.688;2023-07-02T12:28:04;21.60;70.10
42245;DHT22;27912;51.828;5.688;2023-07-02T12:30:30;21.60;69.90
42245;DHT22;27912;51.828;5.688;2023-07-02T12:32:55;21.70;71.20
42245;DHT22;27912;51.828;5.688;2023-07-02T12:35:21;21.90;70.70
42245;DHT22;27912;51.828;5.688;2023-07-02T12:37:51;22.10;70.10
42245;DHT22;27912;51.828;5.688;2023-07-02T12:40:18;22.10;69.30
42245;DHT22;27912;51.828;5.688;2023-07-02T12:42:45;22.00;68.50
42245;DHT22;27912;51.828;5.688;2023-07-02T12:45:12;21.90;68.70
42245;DHT22;27912;51.828;5.688;2023-07-02T12:47:38;21.90;70.90
42245;DHT22;27912;51.828;5.688;2023-07-02T12:50:05;21.90;69.40
42245;DHT22;27912;51.828;5.688;2023-07-02T12:52:31;21.90;69.00
42245;DHT22;27912;51.828;5.688;2023-07-02T12:54:57;21.90;68.70
42245;DHT22;27912;51.828;5.688;2023-07-02T12:57:22;21.80;68.50
42245;DHT22;27912;51.828;5.688;2023-07-02T12:59:49;21.60;68.40
42245;DHT22;27912;51.828;5.688;2023-07-02T13:02:14;21.50;69.30
42245;DHT22;27912;51.828;5.688;2023-07-02T13:04:40;21.50;69.80
42245;DHT22;27912;51.828;5.688;2023-07-02T13:07:06;21.50;69.50
42245;DHT22;27912;51.828;5.688;2023-07-02T13:09:31;21.50;69.20
42245;DHT22;27912;51.828;5.688;2023-07-02T13:11:57;21.50;69.70
42245;DHT22;27912;51.828;5.688;2023-07-02T13:14:22;21.50;70.30
42245;DHT22;27912;51.828;5.688;2023-07-02T13:16:48;21.80;70.70
42245;DHT22;27912;51.828;5.688;2023-07-02T13:19:13;22.10;70.50
42245;DHT22;27912;51.828;5.688;2023-07-02T13:21:40;22.30;68.60
42245;DHT22;27912;51.828;5.688;2023-07-02T13:24:06;22.20;67.80
42245;DHT22;27912;51.828;5.688;2023-07-02T13:26:31;22.10;69.00
42245;DHT22;27912;51.828;5.688;2023-07-02T13:28:57;22.10;68.80
42245;DHT22;27912;51.828;5.688;2023-07-02T13:31:22;22.10;68.40
42245;DHT22;27912;51.828;5.688;2023-07-02T13:33:49;22.00;67.50
42245;DHT22;27912;51.828;5.688;2023-07-02T13:36:16;21.90;68.30
42245;DHT22;27912;51.828;5.688;2023-07-02T13:38:42;22.00;68.50
42245;DHT22;27912;51.828;5.688;2023-07-02T13:41:08;22.00;69.00
42245;DHT22;27912;51.828;5.688;2023-07-02T13:43:34;22.00;69.20
42245;DHT22;27912;51.828;5.688;2023-07-02T13:45:59;22.00;67.50
42245;DHT22;27912;51.828;5.688;2023-07-02T13:48:25;22.10;68.40
42245;DHT22;27912;51.828;5.688;2023-07-02T13:50:50;22.30;68.70
42245;DHT22;27912;51.828;5.688;2023-07-02T13:53:16;22.40;68.40
42245;DHT22;27912;51.828;5.688;2023-07-02T13:55:41;22.30;68.30
42245;DHT22;27912;51.828;5.688;2023-07-02T13:58:07;22.20;68.60
42245;DHT22;27912;51.828;5.688;2023-07-02T14:00:32;22.10;69.30
42245;DHT22;27912;51.828;5.688;2023-07-02T14:02:58;22.10;68.20
42245;DHT22;27912;51.828;5.688;2023-07-02T14:05:24;22.00;68.80
42245;DHT22;27912;51.828;5.688;2023-07-02T14:07:49;22.10;69.70
42245;DHT22;27912;51.828;5.688;2023-07-02T14:10:15;22.00;69.40
42245;DHT22;27912;51.828;5.688;2023-07-02T14:12:41;21.90;68.90
42245;DHT22;27912;51.828;5.688;2023-07-02T14:15:07;21.80;68.20
42245;DHT22;27912;51.828;5.688;2023-07-02T14:17:33;21.60;67.50
42245;DHT22;27912;51.828;5.688;2023-07-02T14:19:59;21.40;68.00
42245;DHT22;27912;51.828;5.688;2023-07-02T14:22:24;21.50;67.50
42245;DHT22;27912;51.828;5.688;2023-07-02T14:24:50;21.70;68.30
42245;DHT22;27912;51.828;5.688;2023-07-02T14:27:15;22.10;67.90
42245;DHT22;27912;51.828;5.688;2023-07-02T14:29:41;22.30;66.40
42245;DHT22;27912;51.828;5.688;2023-07-02T14:32:07;22.30;66.90
42245;DHT22;27912;51.828;5.688;2023-07-02T14:34:33;22.50;67.20
42245;DHT22;27912;51.828;5.688;2023-07-02T14:36:58;22.80;68.00
42245;DHT22;27912;51.828;5.688;2023-07-02T14:39:24;23.20;66.20
42245;DHT22;27912;51.828;5.688;2023-07-02T14:41:50;23.40;66.40
42245;DHT22;27912;51.828;5.688;2023-07-02T14:44:16;23.30;63.80
42245;DHT22;27912;51.828;5.688;2023-07-02T14:46:41;23.00;64.30
42245;DHT22;27912;51.828;5.688;2023-07-02T14:49:08;22.70;65.40
42245;DHT22;27912;51.828;5.688;2023-07-02T14:51:33;22.70;64.70
42245;DHT22;27912;51.828;5.688;2023-07-02T14:53:59;22.60;65.00
42245;DHT22;27912;51.828;5.688;2023-07-02T14:56:26;22.40;65.10
42245;DHT22;27912;51.828;5.688;2023-07-02T14:58:52;22.20;66.40
42245;DHT22;27912;51.828;5.688;2023-07-02T15:01:17;22.20;66.30
42245;DHT22;27912;51.828;5.688;2023-07-02T15:03:43;22.30;66.40
42245;DHT22;27912;51.828;5.688;2023-07-02T15:06:14;22.40;65.70
42245;DHT22;27912;51.828;5.688;2023-07-02T15:08:40;22.60;66.00
42245;DHT22;27912;51.828;5.688;2023-07-02T15:11:08;22.80;65.90
42245;DHT22;27912;51.828;5.688;2023-07-02T15:13:33;22.90;65.70
42245;DHT22;27912;51.828;5.688;2023-07-02T15:15:59;22.90;64.40
42245;DHT22;27912;51.828;5.688;2023-07-02T15:18:26;22.90;64.30
42245;DHT22;27912;51.828;5.688;2023-07-02T15:20:53;22.80;63.60
42245;DHT22;27912;51.828;5.688;2023-07-02T15:23:20;22.60;63.80
42245;DHT22;27912;51.828;5.688;2023-07-02T15:25:52;22.60;64.40
42245;DHT22;27912;51.828;5.688;2023-07-02T15:28:19;22.80;64.20
42245;DHT22;27912;51.828;5.688;2023-07-02T15:30:46;23.20;63.40
42245;DHT22;27912;51.828;5.688;2023-07-02T15:33:13;23.60;62.00